sensor_id;sensor_type;location;lat;lon;timestamp;P1;durP1;ratioP1;P2;durP2;ratioP2
13868;SDS011;7004;48.206;16.402;2022-10-16T00:01:14;39.07;;;32.37;;
13868;SDS011;7004;48.206;16.402;2022-10-16T00:03:43;39.67;;;32.53;;
13868;SDS011;7004;48.206;16.402;2022-10-16T00:06:10;41.77;;;32.87;;
13868;SDS011;7004;48.206;16.402;2022-10-16T00:08:38;39.40;;;33.13;;
13868;SDS011;7004;48.206;16.402;2022-10-16T00:11:05;42.80;;;33.47;;
13868;SDS011;7004;48.206;16.402;2022-10-16T00:13:38;41.03;;;34.03;;
13868;SDS011;7004;48.206;16.402;2022-10-16T00:16:07;45.60;;;34.77;;
13868;SDS011;7004;48.206;16.402;2022-10-16T00:18:35;41.10;;;34.53;;
13868;SDS011;7004;48.206;16.402;2022-10-16T00:21:03;41.33;;;34.07;;
13868;SDS011;7004;48.206;16.402;2022-10-16T00:23:32;39.63;;;33.43;;
13868;SDS011;7004;48.206;16.402;2022-10-16T00:26:00;41.80;;;34.57;;
13868;SDS011;7004;48.206;16.402;2022-10-16T00:28:33;41.87;;;34.27;;
13868;SDS011;7004;48.206;16.402;2022-10-16T00:31:04;41.63;;;34.20;;
13868;SDS011;7004;48.206;16.402;2022-10-16T00:33:36;43.60;;;34.07;;
13868;SDS011;7004;48.206;16.402;2022-10-16T00:36:05;39.07;;;32.93;;
13868;SDS011;7004;48.206;16.402;2022-10-16T00:38:33;43.70;;;35.43;;
13868;SDS011;7004;48.206;16.402;2022-10-16T00:40:59;42.17;;;33.57;;
13868;SDS011;7004;48.206;16.402;2022-10-16T00:46:15;37.77;;;33.17;;
13868;SDS011;7004;48.206;16.402;2022-10-16T00:49:01;42.87;;;35.13;;
13868;SDS011;7004;48.206;16.402;2022-10-16T00:51:36;45.63;;;36.10;;
13868;SDS011;7004;48.206;16.402;2022-10-16T00:54:10;44.13;;;35.13;;
13868;SDS011;7004;48.206;16.402;2022-10-16T00:56:52;42.27;;;35.07;;
13868;SDS011;7004;48.206;16.402;2022-10-16T01:02:04;43.97;;;35.17;;
13868;SDS011;7004;48.206;16.402;2022-10-16T01:04:37;42.83;;;34.83;;
13868;SDS011;7004;48.206;16.402;2022-10-16T01:16:18;50.60;;;38.50;;
13868;SDS011;7004;48.206;16.402;2022-10-16T01:22:09;46.13;;;36.13;;
13868;SDS011;7004;48.206;16.402;2022-10-16T01:24:40;48.20;;;37.53;;
13868;SDS011;7004;48.206;16.402;2022-10-16T01:32:55;48.93;;;37.57;;
13868;SDS011;7004;48.206;16.402;2022-10-16T01:35:41;49.13;;;38.47;;
13868;SDS011;7004;48.206;16.402;2022-10-16T01:38:31;52.27;;;38.10;;
13868;SDS011;7004;48.206;16.402;2022-10-16T01:41:08;52.57;;;39.37;;
13868;SDS011;7004;48.206;16.402;2022-10-16T01:43:46;49.33;;;38.27;;
13868;SDS011;7004;48.206;16.402;2022-10-16T01:46:28;59.97;;;39.47;;
13868;SDS011;7004;48.206;16.402;2022-10-16T01:48:59;47.03;;;37.63;;
13868;SDS011;7004;48.206;16.402;2022-10-16T01:51:28;46.80;;;36.50;;
13868;SDS011;7004;48.206;16.402;2022-10-16T01:53:56;43.40;;;37.30;;
13868;SDS011;7004;48.206;16.402;2022-10-16T01:56:26;45.90;;;37.00;;
13868;SDS011;7004;48.206;16.402;2022-10-16T01:58:58;45.93;;;36.43;;
13868;SDS011;7004;48.206;16.402;2022-10-16T02:01:36;44.63;;;37.33;;
13868;SDS011;7004;48.206;16.402;2022-10-16T02:04:26;42.37;;;36.20;;
13868;SDS011;7004;48.206;16.402;2022-10-16T02:07:18;39.90;;;35.53;;
13868;SDS011;7004;48.206;16.402;2022-10-16T02:09:44;45.03;;;37.13;;
13868;SDS011;7004;48.206;16.402;2022-10-16T02:12:27;42.17;;;36.13;;
13868;SDS011;7004;48.206;16.402;2022-10-16T02:14:58;43.63;;;36.93;;
13868;SDS011;7004;48.206;16.402;2022-10-16T02:17:44;39.20;;;34.57;;
13868;SDS011;7004;48.206;16.402;2022-10-16T02:20:10;39.73;;;34.30;;
13868;SDS011;7004;48.206;16.402;2022-10-16T02:22:43;42.33;;;36.03;;
13868;SDS011;7004;48.206;16.402;2022-10-16T02:25:18;42.57;;;35.83;;
13868;SDS011;7004;48.206;16.402;2022-10-16T02:28:10;42.33;;;36.30;;
13868;SDS011;7004;48.206;16.402;2022-10-16T02:31:00;40.43;;;35.20;;
13868;SDS011;7004;48.206;16.402;2022-10-16T02:33:32;41.00;;;34.40;;
13868;SDS011;7004;48.206;16.402;2022-10-16T02:36:01;39.67;;;34.97;;
13868;SDS011;7004;48.206;16.402;2022-10-16T02:38:28;44.67;;;37.17;;
13868;SDS011;7004;48.206;16.402;2022-10-16T02:40:55;42.83;;;36.30;;
13868;SDS011;7004;48.206;16.402;2022-10-16T02:43:22;37.17;;;33.17;;
13868;SDS011;7004;48.206;16.402;2022-10-16T02:45:50;37.33;;;33.30;;
13868;SDS011;7004;48.206;16.402;2022-10-16T02:48:17;42.97;;;36.47;;
13868;SDS011;7004;48.206;16.402;2022-10-16T02:50:43;39.10;;;34.83;;
13868;SDS011;7004;48.206;16.402;2022-10-16T02:53:11;40.30;;;35.17;;
13868;SDS011;7004;48.206;16.402;2022-10-16T02:55:37;37.57;;;33.53;;
13868;SDS011;7004;48.206;16.402;2022-10-16T02:58:03;39.30;;;34.73;;
13868;SDS011;7004;48.206;16.402;2022-10-16T03:00:29;42.50;;;34.53;;
13868;SDS011;7004;48.206;16.402;2022-10-16T03:02:55;44.90;;;36.53;;
13868;SDS011;7004;48.206;16.402;2022-10-16T03:05:21;41.67;;;35.97;;
13868;SDS011;7004;48.206;16.402;2022-10-16T03:07:48;46.37;;;35.30;;
13868;SDS011;7004;48.206;16.402;2022-10-16T03:10:14;41.63;;;34.20;;
13868;SDS011;7004;48.206;16.402;2022-10-16T03:12:40;43.07;;;35.83;;
13868;SDS011;7004;48.206;16.402;2022-10-16T03:15:06;42.80;;;35.13;;
13868;SDS011;7004;48.206;16.402;2022-10-16T03:17:34;41.30;;;34.23;;
13868;SDS011;7004;48.206;16.402;2022-10-16T03:20:00;45.17;;;35.27;;
13868;SDS011;7004;48.206;16.402;2022-10-16T03:22:27;45.57;;;36.93;;
13868;SDS011;7004;48.206;16.402;2022-10-16T03:24:53;45.03;;;36.87;;
13868;SDS011;7004;48.206;16.402;2022-10-16T03:27:20;47.20;;;36.97;;
13868;SDS011;7004;48.206;16.402;2022-10-16T03:29:46;42.83;;;35.43;;
13868;SDS011;7004;48.206;16.402;2022-10-16T03:32:12;44.07;;;36.80;;
13868;SDS011;7004;48.206;16.402;2022-10-16T03:34:38;47.67;;;37.37;;
13868;SDS011;7004;48.206;16.402;2022-10-16T03:37:04;49.27;;;37.23;;
13868;SDS011;7004;48.206;16.402;2022-10-16T03:39:30;44.43;;;37.53;;
13868;SDS011;7004;48.206;16.402;2022-10-16T03:41:57;45.93;;;36.77;;
13868;SDS011;7004;48.206;16.402;2022-10-16T03:44:23;46.80;;;37.10;;
13868;SDS011;7004;48.206;16.402;2022-10-16T03:46:49;45.50;;;36.93;;
13868;SDS011;7004;48.206;16.402;2022-10-16T03:49:15;41.77;;;34.97;;
13868;SDS011;7004;48.206;16.402;2022-10-16T03:51:41;42.23;;;34.83;;
13868;SDS011;7004;48.206;16.402;2022-10-16T03:54:07;49.13;;;35.83;;
13868;SDS011;7004;48.206;16.402;2022-10-16T03:56:34;50.17;;;37.67;;
13868;SDS011;7004;48.206;16.402;2022-10-16T03:59:01;43.83;;;36.27;;
13868;SDS011;7004;48.206;16.402;2022-10-16T04:01:27;41.87;;;33.67;;
13868;SDS011;7004;48.206;16.402;2022-10-16T04:03:53;43.60;;;34.60;;
13868;SDS011;7004;48.206;16.402;2022-10-16T04:06:20;42.67;;;35.50;;
13868;SDS011;7004;48.206;16.402;2022-10-16T04:08:46;46.27;;;34.57;;
13868;SDS011;7004;48.206;16.402;2022-10-16T04:11:12;40.13;;;33.60;;
13868;SDS011;7004;48.206;16.402;2022-10-16T04:13:38;51.77;;;38.47;;
13868;SDS011;7004;48.206;16.402;2022-10-16T04:16:04;58.93;;;40.73;;
13868;SDS011;7004;48.206;16.402;2022-10-16T04:18:31;61.87;;;43.17;;
13868;SDS011;7004;48.206;16.402;2022-10-16T04:21:01;55.63;;;40.33;;
13868;SDS011;7004;48.206;16.402;2022-10-16T04:23:31;45.83;;;34.57;;
13868;SDS011;7004;48.206;16.402;2022-10-16T04:25:58;38.17;;;30.90;;
13868;SDS011;7004;48.206;16.402;2022-10-16T04:28:25;42.60;;;34.53;;
13868;SDS011;7004;48.206;16.402;2022-10-16T04:30:51;37.77;;;31.70;;
13868;SDS011;7004;48.206;16.402;2022-10-16T04:33:18;40.17;;;32.93;;
13868;SDS011;7004;48.206;16.402;2022-10-16T04:35:44;44.20;;;34.17;;
13868;SDS011;7004;48.206;16.402;2022-10-16T04:38:10;40.27;;;32.33;;
13868;SDS011;7004;48.206;16.402;2022-10-16T04:40:36;38.40;;;31.63;;
13868;SDS011;7004;48.206;16.402;2022-10-16T04:43:03;38.87;;;31.70;;
13868;SDS011;7004;48.206;16.402;2022-10-16T04:45:30;41.53;;;33.17;;
13868;SDS011;7004;48.206;16.402;2022-10-16T04:47:59;39.90;;;31.57;;
13868;SDS011;7004;48.206;16.402;2022-10-16T04:50:26;42.17;;;32.80;;
13868;SDS011;7004;48.206;16.402;2022-10-16T04:52:52;34.27;;;30.40;;
13868;SDS011;7004;48.206;16.402;2022-10-16T04:55:18;40.83;;;32.10;;
13868;SDS011;7004;48.206;16.402;2022-10-16T04:57:44;39.80;;;32.27;;
13868;SDS011;7004;48.206;16.402;2022-10-16T05:00:10;37.40;;;31.03;;
13868;SDS011;7004;48.206;16.402;2022-10-16T05:02:37;40.07;;;33.10;;
13868;SDS011;7004;48.206;16.402;2022-10-16T05:05:03;44.53;;;34.70;;
13868;SDS011;7004;48.206;16.402;2022-10-16T05:07:29;39.10;;;32.07;;
13868;SDS011;7004;48.206;16.402;2022-10-16T05:09:56;36.43;;;30.40;;
13868;SDS011;7004;48.206;16.402;2022-10-16T05:12:22;39.83;;;30.57;;
13868;SDS011;7004;48.206;16.402;2022-10-16T05:14:48;38.13;;;30.57;;
13868;SDS011;7004;48.206;16.402;2022-10-16T05:17:14;35.57;;;29.83;;
13868;SDS011;7004;48.206;16.402;2022-10-16T05:19:40;38.80;;;30.70;;
13868;SDS011;7004;48.206;16.402;2022-10-16T05:22:07;38.87;;;31.40;;
13868;SDS011;7004;48.206;16.402;2022-10-16T05:24:34;36.03;;;30.97;;
13868;SDS011;7004;48.206;16.402;2022-10-16T05:27:00;36.67;;;30.67;;
13868;SDS011;7004;48.206;16.402;2022-10-16T05:29:26;37.77;;;30.33;;
13868;SDS011;7004;48.206;16.402;2022-10-16T05:31:53;56.13;;;38.67;;
13868;SDS011;7004;48.206;16.402;2022-10-16T05:34:19;63.83;;;42.27;;
13868;SDS011;7004;48.206;16.402;2022-10-16T05:36:46;53.23;;;37.37;;
13868;SDS011;7004;48.206;16.402;2022-10-16T05:39:14;62.13;;;40.43;;
13868;SDS011;7004;48.206;16.402;2022-10-16T05:41:41;55.47;;;37.80;;
13868;SDS011;7004;48.206;16.402;2022-10-16T05:44:07;59.20;;;40.57;;
13868;SDS011;7004;48.206;16.402;2022-10-16T05:46:34;49.93;;;35.83;;
13868;SDS011;7004;48.206;16.402;2022-10-16T05:49:00;47.40;;;35.30;;
13868;SDS011;7004;48.206;16.402;2022-10-16T05:51:26;78.40;;;44.43;;
13868;SDS011;7004;48.206;16.402;2022-10-16T05:53:52;62.70;;;42.53;;
13868;SDS011;7004;48.206;16.402;2022-10-16T05:56:18;82.57;;;48.00;;
13868;SDS011;7004;48.206;16.402;2022-10-16T05:58:45;95.50;;;51.03;;
13868;SDS011;7004;48.206;16.402;2022-10-16T06:01:12;97.43;;;52.20;;
13868;SDS011;7004;48.206;16.402;2022-10-16T06:03:41;105.13;;;52.70;;
13868;SDS011;7004;48.206;16.402;2022-10-16T06:06:11;115.43;;;56.27;;
13868;SDS011;7004;48.206;16.402;2022-10-16T06:08:40;109.13;;;54.10;;
13868;SDS011;7004;48.206;16.402;2022-10-16T06:11:08;112.33;;;55.57;;
13868;SDS011;7004;48.206;16.402;2022-10-16T06:13:38;107.50;;;55.63;;
13868;SDS011;7004;48.206;16.402;2022-10-16T06:16:07;116.53;;;53.53;;
13868;SDS011;7004;48.206;16.402;2022-10-16T06:18:34;108.63;;;54.13;;
13868;SDS011;7004;48.206;16.402;2022-10-16T06:21:06;112.63;;;53.87;;
13868;SDS011;7004;48.206;16.402;2022-10-16T06:23:50;116.30;;;57.10;;
13868;SDS011;7004;48.206;16.402;2022-10-16T06:26:18;105.97;;;55.27;;
13868;SDS011;7004;48.206;16.402;2022-10-16T06:28:47;111.57;;;55.57;;
13868;SDS011;7004;48.206;16.402;2022-10-16T06:31:15;99.90;;;54.77;;
13868;SDS011;7004;48.206;16.402;2022-10-16T06:33:42;113.60;;;53.50;;
13868;SDS011;7004;48.206;16.402;2022-10-16T06:36:11;90.43;;;54.80;;
13868;SDS011;7004;48.206;16.402;2022-10-16T06:38:41;95.63;;;54.40;;
13868;SDS011;7004;48.206;16.402;2022-10-16T06:41:08;114.17;;;54.97;;
13868;SDS011;7004;48.206;16.402;2022-10-16T06:43:38;164.73;;;55.77;;
13868;SDS011;7004;48.206;16.402;2022-10-16T06:46:05;100.33;;;56.33;;
13868;SDS011;7004;48.206;16.402;2022-10-16T06:48:35;174.43;;;60.73;;
13868;SDS011;7004;48.206;16.402;2022-10-16T06:53:29;117.87;;;61.13;;
13868;SDS011;7004;48.206;16.402;2022-10-16T06:56:06;110.70;;;60.47;;
13868;SDS011;7004;48.206;16.402;2022-10-16T06:58:37;114.53;;;62.33;;
13868;SDS011;7004;48.206;16.402;2022-10-16T07:01:04;136.27;;;64.73;;
13868;SDS011;7004;48.206;16.402;2022-10-16T07:03:31;124.57;;;66.97;;
13868;SDS011;7004;48.206;16.402;2022-10-16T07:06:01;120.47;;;65.67;;
13868;SDS011;7004;48.206;16.402;2022-10-16T07:08:32;122.63;;;65.70;;
13868;SDS011;7004;48.206;16.402;2022-10-16T07:11:00;119.97;;;63.73;;
13868;SDS011;7004;48.206;16.402;2022-10-16T07:13:35;129.83;;;66.07;;
13868;SDS011;7004;48.206;16.402;2022-10-16T07:16:06;123.83;;;65.90;;
13868;SDS011;7004;48.206;16.402;2022-10-16T07:18:38;128.43;;;66.00;;
13868;SDS011;7004;48.206;16.402;2022-10-16T07:23:41;125.80;;;66.40;;
13868;SDS011;7004;48.206;16.402;2022-10-16T07:26:08;132.83;;;66.80;;
13868;SDS011;7004;48.206;16.402;2022-10-16T07:28:36;150.57;;;67.20;;
13868;SDS011;7004;48.206;16.402;2022-10-16T07:31:03;130.27;;;65.23;;
13868;SDS011;7004;48.206;16.402;2022-10-16T07:33:33;143.47;;;67.53;;
13868;SDS011;7004;48.206;16.402;2022-10-16T07:36:00;137.47;;;70.53;;
13868;SDS011;7004;48.206;16.402;2022-10-16T07:38:26;146.73;;;72.07;;
13868;SDS011;7004;48.206;16.402;2022-10-16T07:40:56;132.47;;;68.27;;
13868;SDS011;7004;48.206;16.402;2022-10-16T07:43:24;138.53;;;68.70;;
13868;SDS011;7004;48.206;16.402;2022-10-16T07:45:51;123.97;;;69.23;;
13868;SDS011;7004;48.206;16.402;2022-10-16T07:48:18;124.00;;;69.97;;
13868;SDS011;7004;48.206;16.402;2022-10-16T07:50:45;125.70;;;67.10;;
13868;SDS011;7004;48.206;16.402;2022-10-16T07:53:11;129.63;;;72.13;;
13868;SDS011;7004;48.206;16.402;2022-10-16T07:55:38;128.03;;;68.13;;
13868;SDS011;7004;48.206;16.402;2022-10-16T07:58:05;127.57;;;70.57;;
13868;SDS011;7004;48.206;16.402;2022-10-16T08:00:32;120.90;;;66.67;;
13868;SDS011;7004;48.206;16.402;2022-10-16T08:02:58;122.00;;;69.27;;
13868;SDS011;7004;48.206;16.402;2022-10-16T08:05:29;115.77;;;67.17;;
13868;SDS011;7004;48.206;16.402;2022-10-16T08:07:57;118.47;;;66.67;;
13868;SDS011;7004;48.206;16.402;2022-10-16T08:10:24;113.23;;;66.90;;
13868;SDS011;7004;48.206;16.402;2022-10-16T08:12:52;121.47;;;69.10;;
13868;SDS011;7004;48.206;16.402;2022-10-16T08:15:18;118.93;;;66.60;;
13868;SDS011;7004;48.206;16.402;2022-10-16T08:17:58;118.30;;;68.23;;
13868;SDS011;7004;48.206;16.402;2022-10-16T08:20:28;112.90;;;65.53;;
13868;SDS011;7004;48.206;16.402;2022-10-16T08:22:55;111.47;;;65.83;;
13868;SDS011;7004;48.206;16.402;2022-10-16T08:25:22;114.20;;;65.17;;
13868;SDS011;7004;48.206;16.402;2022-10-16T08:27:49;108.80;;;63.13;;
13868;SDS011;7004;48.206;16.402;2022-10-16T08:30:16;108.23;;;62.70;;
13868;SDS011;7004;48.206;16.402;2022-10-16T08:32:44;111.23;;;65.03;;
13868;SDS011;7004;48.206;16.402;2022-10-16T08:35:11;113.30;;;65.97;;
13868;SDS011;7004;48.206;16.402;2022-10-16T08:37:39;112.90;;;64.43;;
13868;SDS011;7004;48.206;16.402;2022-10-16T08:40:07;114.40;;;72.73;;
13868;SDS011;7004;48.206;16.402;2022-10-16T08:45:34;95.27;;;59.10;;
13868;SDS011;7004;48.206;16.402;2022-10-16T08:48:45;82.00;;;54.63;;
13868;SDS011;7004;48.206;16.402;2022-10-16T08:51:22;90.00;;;55.60;;
13868;SDS011;7004;48.206;16.402;2022-10-16T08:53:58;84.67;;;54.27;;
13868;SDS011;7004;48.206;16.402;2022-10-16T08:56:29;78.30;;;52.43;;
13868;SDS011;7004;48.206;16.402;2022-10-16T08:58:58;84.53;;;54.70;;
13868;SDS011;7004;48.206;16.402;2022-10-16T09:01:27;82.63;;;53.73;;
13868;SDS011;7004;48.206;16.402;2022-10-16T09:04:25;75.37;;;51.47;;
13868;SDS011;7004;48.206;16.402;2022-10-16T09:16:30;65.33;;;47.40;;
13868;SDS011;7004;48.206;16.402;2022-10-16T09:19:15;65.20;;;47.37;;
13868;SDS011;7004;48.206;16.402;2022-10-16T09:21:59;68.93;;;48.77;;
13868;SDS011;7004;48.206;16.402;2022-10-16T09:24:35;67.40;;;46.73;;
13868;SDS011;7004;48.206;16.402;2022-10-16T09:27:02;69.07;;;49.00;;
13868;SDS011;7004;48.206;16.402;2022-10-16T09:29:28;64.77;;;47.67;;
13868;SDS011;7004;48.206;16.402;2022-10-16T09:31:54;72.07;;;48.83;;
13868;SDS011;7004;48.206;16.402;2022-10-16T09:34:32;71.53;;;50.37;;
13868;SDS011;7004;48.206;16.402;2022-10-16T09:37:05;76.53;;;50.07;;
13868;SDS011;7004;48.206;16.402;2022-10-16T09:39:53;72.17;;;50.17;;
13868;SDS011;7004;48.206;16.402;2022-10-16T09:42:24;66.57;;;47.33;;
13868;SDS011;7004;48.206;16.402;2022-10-16T09:44:55;71.73;;;48.67;;
13868;SDS011;7004;48.206;16.402;2022-10-16T09:47:23;68.60;;;47.63;;
13868;SDS011;7004;48.206;16.402;2022-10-16T09:49:58;65.17;;;46.33;;
13868;SDS011;7004;48.206;16.402;2022-10-16T09:52:28;62.90;;;45.47;;
13868;SDS011;7004;48.206;16.402;2022-10-16T09:54:58;66.73;;;45.43;;
13868;SDS011;7004;48.206;16.402;2022-10-16T09:57:28;69.03;;;47.63;;
13868;SDS011;7004;48.206;16.402;2022-10-16T09:59:58;70.20;;;50.17;;
13868;SDS011;7004;48.206;16.402;2022-10-16T10:02:35;80.17;;;52.83;;
13868;SDS011;7004;48.206;16.402;2022-10-16T10:05:17;71.50;;;49.87;;
13868;SDS011;7004;48.206;16.402;2022-10-16T10:08:12;71.90;;;49.10;;
13868;SDS011;7004;48.206;16.402;2022-10-16T10:10:44;66.53;;;47.80;;
13868;SDS011;7004;48.206;16.402;2022-10-16T10:13:19;63.27;;;47.20;;
13868;SDS011;7004;48.206;16.402;2022-10-16T10:15:48;60.67;;;45.90;;
13868;SDS011;7004;48.206;16.402;2022-10-16T10:18:19;62.17;;;46.13;;
13868;SDS011;7004;48.206;16.402;2022-10-16T10:20:59;66.57;;;46.67;;
13868;SDS011;7004;48.206;16.402;2022-10-16T10:23:27;62.27;;;46.87;;
13868;SDS011;7004;48.206;16.402;2022-10-16T10:40:51;66.23;;;49.83;;
13868;SDS011;7004;48.206;16.402;2022-10-16T10:44:37;61.93;;;47.87;;
13868;SDS011;7004;48.206;16.402;2022-10-16T10:58:27;50.50;;;41.10;;
13868;SDS011;7004;48.206;16.402;2022-10-16T11:01:13;49.63;;;40.73;;
13868;SDS011;7004;48.206;16.402;2022-10-16T11:06:42;44.40;;;37.43;;
13868;SDS011;7004;48.206;16.402;2022-10-16T11:09:27;44.97;;;36.67;;
13868;SDS011;7004;48.206;16.402;2022-10-16T11:12:04;46.70;;;38.20;;
13868;SDS011;7004;48.206;16.402;2022-10-16T11:15:04;46.33;;;36.07;;
13868;SDS011;7004;48.206;16.402;2022-10-16T11:17:55;44.77;;;36.13;;
13868;SDS011;7004;48.206;16.402;2022-10-16T11:21:07;45.83;;;36.50;;
13868;SDS011;7004;48.206;16.402;2022-10-16T11:23:41;44.87;;;37.27;;
13868;SDS011;7004;48.206;16.402;2022-10-16T11:26:20;45.03;;;37.13;;
13868;SDS011;7004;48.206;16.402;2022-10-16T11:28:53;41.87;;;36.53;;
13868;SDS011;7004;48.206;16.402;2022-10-16T11:34:22;43.60;;;38.27;;
13868;SDS011;7004;48.206;16.402;2022-10-16T11:37:05;45.77;;;37.43;;
13868;SDS011;7004;48.206;16.402;2022-10-16T11:40:14;45.87;;;37.80;;
13868;SDS011;7004;48.206;16.402;2022-10-16T11:42:57;46.53;;;39.03;;
13868;SDS011;7004;48.206;16.402;2022-10-16T11:45:51;45.37;;;38.50;;
13868;SDS011;7004;48.206;16.402;2022-10-16T11:51:28;43.00;;;37.93;;
13868;SDS011;7004;48.206;16.402;2022-10-16T11:54:24;44.00;;;38.17;;
13868;SDS011;7004;48.206;16.402;2022-10-16T11:57:15;47.03;;;38.80;;
13868;SDS011;7004;48.206;16.402;2022-10-16T12:05:52;53.20;;;38.40;;
13868;SDS011;7004;48.206;16.402;2022-10-16T12:08:49;47.97;;;40.17;;
13868;SDS011;7004;48.206;16.402;2022-10-16T12:14:03;52.90;;;39.67;;
13868;SDS011;7004;48.206;16.402;2022-10-16T12:16:50;48.63;;;39.43;;
13868;SDS011;7004;48.206;16.402;2022-10-16T12:19:26;48.07;;;39.17;;
13868;SDS011;7004;48.206;16.402;2022-10-16T12:21:58;45.97;;;39.17;;
13868;SDS011;7004;48.206;16.402;2022-10-16T12:24:34;47.50;;;39.27;;
13868;SDS011;7004;48.206;16.402;2022-10-16T12:27:06;45.03;;;37.70;;
13868;SDS011;7004;48.206;16.402;2022-10-16T12:29:57;44.60;;;39.10;;
13868;SDS011;7004;48.206;16.402;2022-10-16T12:35:05;51.87;;;40.60;;
13868;SDS011;7004;48.206;16.402;2022-10-16T12:37:46;45.50;;;39.13;;
13868;SDS011;7004;48.206;16.402;2022-10-16T12:40:34;46.30;;;39.33;;
13868;SDS011;7004;48.206;16.402;2022-10-16T12:44:02;44.73;;;38.03;;
13868;SDS011;7004;48.206;16.402;2022-10-16T12:46:01;50.47;;;41.60;;
13868;SDS011;7004;48.206;16.402;2022-10-16T12:48:31;50.30;;;40.93;;
13868;SDS011;7004;48.206;16.402;2022-10-16T12:50:57;48.23;;;40.57;;
13868;SDS011;7004;48.206;16.402;2022-10-16T12:53:34;50.73;;;40.43;;
13868;SDS011;7004;48.206;16.402;2022-10-16T13:02:01;50.73;;;41.93;;
13868;SDS011;7004;48.206;16.402;2022-10-16T13:10:38;48.53;;;41.27;;
13868;SDS011;7004;48.206;16.402;2022-10-16T13:22:24;47.13;;;37.53;;
13868;SDS011;7004;48.206;16.402;2022-10-16T13:25:17;44.97;;;37.80;;
13868;SDS011;7004;48.206;16.402;2022-10-16T13:28:12;43.97;;;39.03;;
13868;SDS011;7004;48.206;16.402;2022-10-16T13:30:42;44.63;;;37.17;;
13868;SDS011;7004;48.206;16.402;2022-10-16T13:33:29;43.77;;;36.53;;
13868;SDS011;7004;48.206;16.402;2022-10-16T13:36:22;43.63;;;37.83;;
13868;SDS011;7004;48.206;16.402;2022-10-16T13:42:03;44.87;;;36.57;;
13868;SDS011;7004;48.206;16.402;2022-10-16T13:44:52;42.70;;;37.00;;
13868;SDS011;7004;48.206;16.402;2022-10-16T13:47:21;40.93;;;36.03;;
13868;SDS011;7004;48.206;16.402;2022-10-16T13:50:03;40.97;;;35.80;;
13868;SDS011;7004;48.206;16.402;2022-10-16T13:52:36;47.37;;;36.73;;
13868;SDS011;7004;48.206;16.402;2022-10-16T13:55:04;41.13;;;35.40;;
13868;SDS011;7004;48.206;16.402;2022-10-16T13:57:41;44.13;;;36.37;;
13868;SDS011;7004;48.206;16.402;2022-10-16T14:00:21;42.20;;;36.50;;
13868;SDS011;7004;48.206;16.402;2022-10-16T14:02:51;43.53;;;36.57;;
13868;SDS011;7004;48.206;16.402;2022-10-16T14:05:25;37.97;;;33.00;;
13868;SDS011;7004;48.206;16.402;2022-10-16T14:07:51;42.23;;;35.40;;
13868;SDS011;7004;48.206;16.402;2022-10-16T14:10:30;38.97;;;33.83;;
13868;SDS011;7004;48.206;16.402;2022-10-16T14:13:07;45.17;;;35.53;;
13868;SDS011;7004;48.206;16.402;2022-10-16T14:15:45;39.93;;;33.33;;
13868;SDS011;7004;48.206;16.402;2022-10-16T14:18:21;42.57;;;34.80;;
13868;SDS011;7004;48.206;16.402;2022-10-16T14:20:51;45.90;;;34.93;;
13868;SDS011;7004;48.206;16.402;2022-10-16T14:23:28;37.73;;;33.03;;
13868;SDS011;7004;48.206;16.402;2022-10-16T14:28:36;39.33;;;31.97;;
13868;SDS011;7004;48.206;16.402;2022-10-16T14:34:01;35.47;;;30.43;;
13868;SDS011;7004;48.206;16.402;2022-10-16T14:36:28;34.63;;;29.57;;
13868;SDS011;7004;48.206;16.402;2022-10-16T14:39:05;36.63;;;30.20;;
13868;SDS011;7004;48.206;16.402;2022-10-16T14:41:48;35.13;;;29.77;;
13868;SDS011;7004;48.206;16.402;2022-10-16T14:44:17;34.87;;;29.30;;
13868;SDS011;7004;48.206;16.402;2022-10-16T14:46:48;31.53;;;28.10;;
13868;SDS011;7004;48.206;16.402;2022-10-16T14:49:16;33.40;;;28.20;;
13868;SDS011;7004;48.206;16.402;2022-10-16T14:51:45;37.47;;;28.70;;
13868;SDS011;7004;48.206;16.402;2022-10-16T14:54:13;31.13;;;27.73;;
13868;SDS011;7004;48.206;16.402;2022-10-16T14:56:46;35.27;;;28.90;;
13868;SDS011;7004;48.206;16.402;2022-10-16T14:59:25;36.00;;;29.37;;
13868;SDS011;7004;48.206;16.402;2022-10-16T15:01:55;34.03;;;28.30;;
13868;SDS011;7004;48.206;16.402;2022-10-16T15:04:21;37.53;;;28.13;;
13868;SDS011;7004;48.206;16.402;2022-10-16T15:06:47;37.03;;;29.00;;
13868;SDS011;7004;48.206;16.402;2022-10-16T15:09:13;33.73;;;27.83;;
13868;SDS011;7004;48.206;16.402;2022-10-16T15:11:40;33.33;;;28.50;;
13868;SDS011;7004;48.206;16.402;2022-10-16T15:14:11;34.07;;;28.10;;
13868;SDS011;7004;48.206;16.402;2022-10-16T15:16:39;34.33;;;28.33;;
13868;SDS011;7004;48.206;16.402;2022-10-16T15:19:05;32.23;;;27.53;;
13868;SDS011;7004;48.206;16.402;2022-10-16T15:21:31;33.87;;;29.00;;
13868;SDS011;7004;48.206;16.402;2022-10-16T15:23:58;33.20;;;27.23;;
13868;SDS011;7004;48.206;16.402;2022-10-16T15:26:26;34.90;;;28.50;;
13868;SDS011;7004;48.206;16.402;2022-10-16T15:28:54;33.73;;;28.20;;
13868;SDS011;7004;48.206;16.402;2022-10-16T15:31:21;35.30;;;29.00;;
13868;SDS011;7004;48.206;16.402;2022-10-16T15:33:51;35.70;;;29.47;;
13868;SDS011;7004;48.206;16.402;2022-10-16T15:36:27;35.50;;;28.10;;
13868;SDS011;7004;48.206;16.402;2022-10-16T15:39:02;35.13;;;29.20;;
13868;SDS011;7004;48.206;16.402;2022-10-16T15:41:30;36.67;;;28.73;;
13868;SDS011;7004;48.206;16.402;2022-10-16T15:43:56;42.93;;;30.80;;
13868;SDS011;7004;48.206;16.402;2022-10-16T15:46:23;38.13;;;30.23;;
13868;SDS011;7004;48.206;16.402;2022-10-16T15:48:50;36.93;;;28.27;;
13868;SDS011;7004;48.206;16.402;2022-10-16T15:51:21;35.57;;;30.37;;
13868;SDS011;7004;48.206;16.402;2022-10-16T15:53:47;37.97;;;30.40;;
13868;SDS011;7004;48.206;16.402;2022-10-16T15:56:13;39.50;;;30.43;;
13868;SDS011;7004;48.206;16.402;2022-10-16T15:58:40;37.10;;;30.83;;
13868;SDS011;7004;48.206;16.402;2022-10-16T16:01:07;37.77;;;30.97;;
13868;SDS011;7004;48.206;16.402;2022-10-16T16:03:35;38.67;;;30.73;;
13868;SDS011;7004;48.206;16.402;2022-10-16T16:06:09;39.87;;;30.73;;
13868;SDS011;7004;48.206;16.402;2022-10-16T16:08:38;36.30;;;30.40;;
13868;SDS011;7004;48.206;16.402;2022-10-16T16:11:05;37.83;;;31.57;;
13868;SDS011;7004;48.206;16.402;2022-10-16T16:13:34;37.83;;;30.83;;
13868;SDS011;7004;48.206;16.402;2022-10-16T16:16:10;43.10;;;30.77;;
13868;SDS011;7004;48.206;16.402;2022-10-16T16:18:39;45.17;;;32.10;;
13868;SDS011;7004;48.206;16.402;2022-10-16T16:21:06;41.33;;;31.23;;
13868;SDS011;7004;48.206;16.402;2022-10-16T16:23:33;40.50;;;33.13;;
13868;SDS011;7004;48.206;16.402;2022-10-16T16:26:41;37.20;;;31.90;;
13868;SDS011;7004;48.206;16.402;2022-10-16T16:28:57;37.77;;;30.53;;
13868;SDS011;7004;48.206;16.402;2022-10-16T16:31:24;38.97;;;31.50;;
13868;SDS011;7004;48.206;16.402;2022-10-16T16:33:52;43.73;;;31.97;;
13868;SDS011;7004;48.206;16.402;2022-10-16T16:36:19;37.07;;;29.73;;
13868;SDS011;7004;48.206;16.402;2022-10-16T16:38:46;40.43;;;32.90;;
13868;SDS011;7004;48.206;16.402;2022-10-16T16:43:40;40.20;;;31.17;;
13868;SDS011;7004;48.206;16.402;2022-10-16T16:46:07;39.73;;;30.30;;